This is the latest recevied weather packets stored in our database for station/object KK6LZB. If no packets are shown the sender has not sent any weather packets the latest 10 day(s).
| Time | Temp. | Humidity | Pressure | Rain* | Wind** | Luminosity | Snow |
|---|---|---|---|---|---|---|---|
| 1778110282 | 21.67° C | 61% | 1017.9 hPa | 0 mm | - | 354 W/m² | - |
| 1778109978 | 22.22° C | 59% | 1017.8 hPa | 0 mm | - | 368 W/m² | - |
| 1778109674 | 23.33° C | 55% | 1017.9 hPa | 0 mm | - | 383 W/m² | - |
| 1778109371 | 22.78° C | 56% | 1017.8 hPa | 0 mm | - | 397 W/m² | - |
| 1778109069 | 22.78° C | 58% | 1017.8 hPa | 0 mm | - | 410 W/m² | - |
| 1778108766 | 21.67° C | 58% | 1017.9 hPa | 0 mm | - | 425 W/m² | - |
| 1778108463 | 22.78° C | 55% | 1018 hPa | 0 mm | - | 439 W/m² | - |
| 1778108159 | 22.22° C | 54% | 1018.1 hPa | 0 mm | - | 453 W/m² | - |
| 1778107856 | 23.33° C | 50% | 1018 hPa | 0 mm | - | 465 W/m² | - |
| 1778107553 | 22.78° C | 51% | 1018.1 hPa | 0 mm | - | 479 W/m² | - |
| 1778107250 | 22.78° C | 49% | 1018.2 hPa | 0 mm | - | 492 W/m² | - |
| 1778106945 | 22.78° C | 50% | 1018.4 hPa | 0 mm | - | 505 W/m² | - |
| 1778106642 | 23.33° C | 48% | 1018.3 hPa | 0 mm | - | 518 W/m² | - |
| 1778106339 | 23.89° C | 48% | 1018.5 hPa | 0 mm | - | 525 W/m² | - |
| 1778106035 | 23.89° C | 49% | 1018.4 hPa | 0 mm | - | 537 W/m² | - |
| 1778105733 | 23.33° C | 50% | 1018.6 hPa | 0 mm | - | 550 W/m² | - |
| 1778105430 | 24.44° C | 50% | 1018.5 hPa | 0 mm | - | 560 W/m² | - |
| 1778105126 | 23.89° C | 49% | 1018.7 hPa | 0 mm | - | 572 W/m² | - |
| 1778104822 | 22.78° C | 58% | 1018.4 hPa | 0 mm | - | 584 W/m² | - |
| 1778104519 | 21.67° C | 59% | 1018.5 hPa | 0 mm | - | 594 W/m² | - |
| 1778104215 | 22.22° C | 57% | 1018.6 hPa | 0 mm | - | 604 W/m² | - |
| 1778103912 | 22.22° C | 56% | 1018.6 hPa | 0 mm | - | 614 W/m² | - |
| 1778103609 | 22.22° C | 58% | 1018.7 hPa | 0 mm | - | 623 W/m² | - |
| 1778103307 | 22.78° C | 59% | 1018.6 hPa | 0 mm | - | 630 W/m² | - |
| 1778103004 | 23.33° C | 58% | 1018.7 hPa | 0 mm | - | 640 W/m² | - |
* Rain latest hour (hover to see other rain measurements)
** Current wind speed in m/s (hover to see current wind gust speed)